createdAt,value
2019-01-23T00:00:55.633Z,835.11
2019-01-23T00:01:55.496Z,835.12
2019-01-23T00:02:55.353Z,835.13
2019-01-23T00:03:55.213Z,835.11
2019-01-23T00:04:55.074Z,835.10
2019-01-23T00:05:54.934Z,835.07
2019-01-23T00:06:54.793Z,835.03
2019-01-23T00:07:54.651Z,835.02
2019-01-23T00:08:54.514Z,835.02
2019-01-23T00:09:54.371Z,835.01
2019-01-23T00:10:54.231Z,835.00
2019-01-23T00:11:54.091Z,835.03
2019-01-23T00:12:53.951Z,835.02
2019-01-23T00:13:53.813Z,835.03
2019-01-23T00:14:53.670Z,835.02
2019-01-23T00:15:53.530Z,835.03
2019-01-23T00:16:53.391Z,834.99
2019-01-23T00:17:53.251Z,835.05
2019-01-23T00:18:53.108Z,835.04
2019-01-23T00:19:52.968Z,835.05
2019-01-23T00:20:52.826Z,835.07
2019-01-23T00:21:52.687Z,835.06
2019-01-23T00:22:52.545Z,835.03
2019-01-23T00:23:52.404Z,835.02
2019-01-23T00:24:52.263Z,835.02
2019-01-23T00:25:52.125Z,835.00
2019-01-23T00:26:51.985Z,834.96
2019-01-23T00:27:51.843Z,834.94
2019-01-23T00:28:51.703Z,834.94
2019-01-23T00:29:51.560Z,834.94
2019-01-23T00:30:51.421Z,834.93
2019-01-23T00:31:51.282Z,834.90
2019-01-23T00:32:51.139Z,834.94
2019-01-23T00:33:50.999Z,834.86
2019-01-23T00:34:50.860Z,834.85
2019-01-23T00:35:50.719Z,834.88
2019-01-23T00:36:50.581Z,834.83
2019-01-23T00:37:50.438Z,834.84
2019-01-23T00:38:50.296Z,834.82
2019-01-23T00:39:50.155Z,834.81
2019-01-23T00:40:50.017Z,834.81
2019-01-23T00:41:49.877Z,834.81
2019-01-23T00:42:49.737Z,834.80
2019-01-23T00:43:49.599Z,834.79
2019-01-23T00:44:49.457Z,834.78
2019-01-23T00:45:49.314Z,834.76
2019-01-23T00:46:49.176Z,834.74
2019-01-23T00:47:49.037Z,834.74
2019-01-23T00:48:48.903Z,834.69
2019-01-23T00:49:48.755Z,834.68
2019-01-23T00:50:48.614Z,834.68
2019-01-23T00:51:48.472Z,834.72
2019-01-23T00:52:48.335Z,834.69
2019-01-23T00:53:48.193Z,834.68
2019-01-23T00:54:48.056Z,834.66
2019-01-23T00:55:47.914Z,834.69
2019-01-23T00:56:47.775Z,834.67
2019-01-23T00:57:47.633Z,834.69
2019-01-23T00:58:49.296Z,834.67
2019-01-23T00:59:47.353Z,834.69
2019-01-23T01:00:47.216Z,834.64
2019-01-23T01:01:47.072Z,834.63
2019-01-23T01:02:46.934Z,834.65
2019-01-23T01:03:46.797Z,834.59
2019-01-23T01:04:46.654Z,834.62
2019-01-23T01:05:46.510Z,834.60
2019-01-23T01:06:46.373Z,834.58
2019-01-23T01:07:46.230Z,834.57
2019-01-23T01:08:46.092Z,834.62
2019-01-23T01:09:45.950Z,834.61
2019-01-23T01:10:45.810Z,834.65
2019-01-23T01:11:45.670Z,834.64
2019-01-23T01:12:45.538Z,834.61
2019-01-23T01:13:45.390Z,834.57
2019-01-23T01:14:45.251Z,834.61
2019-01-23T01:15:45.112Z,834.62
2019-01-23T01:16:44.971Z,834.60
2019-01-23T01:17:44.832Z,834.59
2019-01-23T01:18:44.692Z,834.58
2019-01-23T01:19:44.551Z,834.57
2019-01-23T01:20:44.413Z,834.62
2019-01-23T01:21:44.272Z,834.58
2019-01-23T01:22:44.131Z,834.57
2019-01-23T01:23:43.992Z,834.56
2019-01-23T01:24:43.855Z,834.60
2019-01-23T01:25:43.715Z,834.54
2019-01-23T01:26:43.575Z,834.54
2019-01-23T01:27:43.434Z,834.53
2019-01-23T01:28:43.294Z,834.54
2019-01-23T01:29:43.155Z,834.50
2019-01-23T01:30:43.014Z,834.52
2019-01-23T01:31:42.872Z,834.50
2019-01-23T01:32:42.735Z,834.49
2019-01-23T01:33:42.598Z,834.52
2019-01-23T01:34:42.456Z,834.51
2019-01-23T01:35:42.312Z,834.48
2019-01-23T01:36:42.173Z,834.42
2019-01-23T01:37:42.034Z,834.45
2019-01-23T01:38:41.893Z,834.43
2019-01-23T01:39:41.755Z,834.45
2019-01-23T01:40:41.612Z,834.46
2019-01-23T01:41:41.475Z,834.38
2019-01-23T01:42:41.333Z,834.39
2019-01-23T01:43:41.193Z,834.39
2019-01-23T01:44:41.053Z,834.38
2019-01-23T01:45:40.914Z,834.37
2019-01-23T01:46:40.773Z,834.36
2019-01-23T01:47:40.632Z,834.35
2019-01-23T01:48:40.494Z,834.33
2019-01-23T01:49:40.356Z,834.29
2019-01-23T01:50:40.216Z,834.32
2019-01-23T01:51:40.072Z,834.30
2019-01-23T01:52:39.933Z,834.25
2019-01-23T01:53:39.793Z,834.27
2019-01-23T01:54:39.653Z,834.24
2019-01-23T01:55:39.512Z,834.25
2019-01-23T01:56:39.371Z,834.20
2019-01-23T01:57:39.231Z,834.21
2019-01-23T01:58:39.090Z,834.20
2019-01-23T01:59:38.950Z,834.18
2019-01-23T02:00:38.815Z,834.17
2019-01-23T02:01:38.672Z,834.15
2019-01-23T02:02:38.531Z,834.15
2019-01-23T02:03:38.391Z,834.14
2019-01-23T02:04:38.251Z,834.13
2019-01-23T02:05:38.114Z,834.13
2019-01-23T02:06:37.973Z,834.12
2019-01-23T02:07:37.833Z,834.12
2019-01-23T02:08:37.692Z,834.04
2019-01-23T02:09:37.552Z,834.06
2019-01-23T02:10:37.411Z,834.08
2019-01-23T02:11:37.274Z,834.07
2019-01-23T02:12:37.133Z,834.01
2019-01-23T02:13:36.992Z,834.00
2019-01-23T02:14:36.853Z,833.96
2019-01-23T02:15:36.711Z,833.95
2019-01-23T02:16:36.574Z,833.96
2019-01-23T02:17:36.433Z,833.93
2019-01-23T02:18:36.301Z,833.91
2019-01-23T02:19:36.152Z,833.87
2019-01-23T02:20:36.011Z,833.83
2019-01-23T02:21:35.874Z,833.82
2019-01-23T02:22:35.733Z,833.81
2019-01-23T02:23:35.592Z,833.76
2019-01-23T02:24:35.454Z,833.78
2019-01-23T02:25:35.311Z,833.77
2019-01-23T02:26:35.171Z,833.72
2019-01-23T02:27:35.030Z,833.72
2019-01-23T02:28:34.890Z,833.68
2019-01-23T02:29:34.751Z,833.68
2019-01-23T02:30:34.615Z,833.70
2019-01-23T02:31:34.471Z,833.69
2019-01-23T02:32:34.329Z,833.66
2019-01-23T02:33:34.191Z,833.57
2019-01-23T02:34:34.053Z,833.59
2019-01-23T02:35:33.912Z,833.56
2019-01-23T02:36:33.770Z,833.56
2019-01-23T02:37:33.629Z,833.55
2019-01-23T02:38:33.492Z,833.53
2019-01-23T02:39:33.351Z,833.50
2019-01-23T02:40:33.217Z,833.50
2019-01-23T02:41:33.071Z,833.51
2019-01-23T02:42:32.932Z,833.50
2019-01-23T02:43:32.791Z,833.45
2019-01-23T02:44:32.649Z,833.44
2019-01-23T02:45:32.513Z,833.44
2019-01-23T02:46:32.373Z,833.43
2019-01-23T02:47:32.232Z,833.41
2019-01-23T02:48:32.090Z,833.37
2019-01-23T02:49:31.952Z,833.39
2019-01-23T02:50:31.812Z,833.36
2019-01-23T02:51:31.689Z,833.34
2019-01-23T02:52:31.533Z,833.33
2019-01-23T02:53:31.392Z,833.33
2019-01-23T02:54:31.250Z,833.31
2019-01-23T02:55:31.112Z,833.30
2019-01-23T02:56:30.971Z,833.28
2019-01-23T02:57:30.830Z,833.25
2019-01-23T02:58:30.690Z,833.24
2019-01-23T02:59:30.551Z,833.20
2019-01-23T03:00:30.424Z,833.20
2019-01-23T03:01:30.271Z,833.16
2019-01-23T03:02:30.130Z,833.16
2019-01-23T03:03:29.992Z,833.19
2019-01-23T03:04:29.855Z,833.19
2019-01-23T03:05:29.712Z,833.20
2019-01-23T03:06:29.570Z,833.13
2019-01-23T03:07:29.432Z,833.15
2019-01-23T03:08:29.293Z,833.14
2019-01-23T03:09:29.156Z,833.12
2019-01-23T03:10:29.012Z,833.11
2019-01-23T03:11:28.874Z,833.11
2019-01-23T03:12:28.734Z,833.10
2019-01-23T03:13:28.595Z,833.09
2019-01-23T03:14:28.454Z,833.08
2019-01-23T03:15:28.312Z,833.08
2019-01-23T03:16:28.172Z,833.07
2019-01-23T03:17:28.031Z,833.09
2019-01-23T03:18:27.893Z,833.09
2019-01-23T03:19:27.758Z,833.04
2019-01-23T03:20:27.613Z,833.07
2019-01-23T03:21:27.471Z,833.01
2019-01-23T03:22:27.333Z,833.03
2019-01-23T03:23:27.193Z,832.99
2019-01-23T03:24:27.052Z,832.96
2019-01-23T03:25:26.910Z,832.96
2019-01-23T03:26:26.771Z,832.96
2019-01-23T03:27:26.632Z,832.94
2019-01-23T03:28:26.493Z,832.93
2019-01-23T03:29:26.350Z,832.88
2019-01-23T03:30:26.213Z,832.89
2019-01-23T03:31:26.074Z,832.86
2019-01-23T03:32:25.932Z,832.86
2019-01-23T03:33:25.795Z,832.84
2019-01-23T03:34:25.650Z,832.82
2019-01-23T03:35:25.508Z,832.82
2019-01-23T03:36:25.371Z,832.82
2019-01-23T03:37:25.231Z,832.80
2019-01-23T03:38:25.093Z,832.79
2019-01-23T03:39:24.950Z,832.81
2019-01-23T03:40:24.812Z,832.75
2019-01-23T03:41:24.669Z,832.73
2019-01-23T03:42:24.532Z,832.73
2019-01-23T03:43:24.389Z,832.68
2019-01-23T03:44:24.249Z,832.67
2019-01-23T03:45:24.111Z,832.61
2019-01-23T03:46:23.974Z,832.62
2019-01-23T03:47:23.830Z,832.64
2019-01-23T03:48:23.688Z,832.64
2019-01-23T03:49:23.547Z,832.59
2019-01-23T03:50:23.409Z,832.59
2019-01-23T03:51:23.266Z,832.58
2019-01-23T03:52:23.128Z,832.53
2019-01-23T03:53:22.987Z,832.58
2019-01-23T03:54:22.847Z,832.52
2019-01-23T03:55:22.707Z,832.55
2019-01-23T03:56:22.568Z,832.54
2019-01-23T03:57:22.427Z,832.55
2019-01-23T03:58:22.293Z,832.53
2019-01-23T03:59:22.146Z,832.52
2019-01-23T04:00:22.007Z,832.52
2019-01-23T04:01:21.865Z,832.52
2019-01-23T04:02:21.724Z,832.51
2019-01-23T04:03:21.583Z,832.53
2019-01-23T04:04:21.443Z,832.55
2019-01-23T04:05:21.305Z,832.59
2019-01-23T04:06:21.172Z,832.59
2019-01-23T04:07:21.021Z,832.60
2019-01-23T04:08:20.885Z,832.63
2019-01-23T04:09:20.746Z,832.64
2019-01-23T04:10:20.602Z,832.61
2019-01-23T04:11:20.462Z,832.60
2019-01-23T04:12:20.323Z,832.59
2019-01-23T04:13:20.182Z,832.60
2019-01-23T04:14:20.041Z,832.59
2019-01-23T04:15:19.900Z,832.57
2019-01-23T04:16:19.759Z,832.57
2019-01-23T04:17:19.620Z,832.55
2019-01-23T04:18:19.484Z,832.52
2019-01-23T04:19:19.338Z,832.53
2019-01-23T04:20:19.201Z,832.58
2019-01-23T04:21:19.057Z,832.58
2019-01-23T04:22:18.920Z,832.59
2019-01-23T04:23:18.779Z,832.58
2019-01-23T04:24:18.637Z,832.56
2019-01-23T04:25:18.498Z,832.54
2019-01-23T04:26:18.357Z,832.51
2019-01-23T04:27:18.216Z,832.50
2019-01-23T04:28:18.077Z,832.49
2019-01-23T04:29:17.941Z,832.49
2019-01-23T04:30:17.795Z,832.46
2019-01-23T04:31:17.657Z,832.49
2019-01-23T04:32:17.519Z,832.44
2019-01-23T04:33:17.374Z,832.45
2019-01-23T04:34:17.236Z,832.43
2019-01-23T04:35:17.094Z,832.43
2019-01-23T04:36:16.953Z,832.41
2019-01-23T04:37:16.819Z,832.39
2019-01-23T04:38:16.675Z,832.39
2019-01-23T04:39:16.535Z,832.42
2019-01-23T04:40:16.392Z,832.36
2019-01-23T04:41:16.258Z,832.38
2019-01-23T04:42:16.116Z,832.35
2019-01-23T04:43:15.969Z,832.35
2019-01-23T04:44:15.832Z,832.36
2019-01-23T04:45:15.691Z,832.36
2019-01-23T04:46:15.551Z,832.35
2019-01-23T04:47:15.407Z,832.35
2019-01-23T04:48:15.271Z,832.33
2019-01-23T04:49:15.129Z,832.34
2019-01-23T04:50:14.988Z,832.32
2019-01-23T04:51:14.847Z,832.34
2019-01-23T04:52:14.724Z,832.27
2019-01-23T04:53:14.575Z,832.28
2019-01-23T04:54:14.431Z,832.29
2019-01-23T04:55:14.310Z,832.25
2019-01-23T04:56:14.143Z,832.26
2019-01-23T04:57:14.003Z,832.23
2019-01-23T04:58:13.865Z,832.23
2019-01-23T04:59:13.731Z,832.24
2019-01-23T05:00:13.582Z,832.27
2019-01-23T05:01:13.439Z,832.25
2019-01-23T05:02:13.299Z,832.18
2019-01-23T05:03:13.165Z,832.22
2019-01-23T05:04:13.019Z,832.15
2019-01-23T05:05:12.879Z,832.19
2019-01-23T05:06:12.735Z,832.16
2019-01-23T05:07:12.598Z,832.14
2019-01-23T05:08:12.453Z,832.16
2019-01-23T05:09:12.315Z,832.09
2019-01-23T05:10:12.175Z,832.11
2019-01-23T05:11:12.042Z,832.05
2019-01-23T05:12:11.892Z,832.06
2019-01-23T05:13:11.750Z,832.07
2019-01-23T05:14:11.613Z,832.03
2019-01-23T05:15:11.472Z,832.01
2019-01-23T05:16:11.330Z,832.03
2019-01-23T05:17:11.200Z,832.00
2019-01-23T05:18:11.046Z,832.00
2019-01-23T05:19:10.906Z,831.98
2019-01-23T05:20:10.765Z,832.01
2019-01-23T05:21:10.626Z,832.01
2019-01-23T05:22:10.483Z,831.97
2019-01-23T05:23:10.339Z,831.97
2019-01-23T05:24:10.201Z,831.99
2019-01-23T05:25:10.074Z,831.95
2019-01-23T05:26:09.919Z,831.93
2019-01-23T05:27:09.777Z,831.94
2019-01-23T05:28:09.635Z,831.94
2019-01-23T05:29:09.497Z,831.91
2019-01-23T05:30:09.356Z,831.94
2019-01-23T05:31:09.212Z,831.92
2019-01-23T05:32:09.072Z,831.89
2019-01-23T05:33:08.945Z,831.90
2019-01-23T05:34:08.792Z,831.90
2019-01-23T05:35:08.649Z,831.90
2019-01-23T05:36:08.594Z,831.92
2019-01-23T05:37:08.368Z,831.90
2019-01-23T05:38:08.233Z,831.90
2019-01-23T05:39:08.086Z,831.88
2019-01-23T05:40:07.947Z,831.91
2019-01-23T05:41:07.809Z,831.88
2019-01-23T05:42:07.668Z,831.90
2019-01-23T05:43:07.538Z,831.88
2019-01-23T05:44:07.381Z,831.84
2019-01-23T05:45:07.242Z,831.84
2019-01-23T05:46:07.101Z,831.83
2019-01-23T05:47:06.958Z,831.79
2019-01-23T05:48:06.818Z,831.80
2019-01-23T05:49:06.677Z,831.79
2019-01-23T05:50:06.534Z,831.80
2019-01-23T05:51:06.394Z,831.75
2019-01-23T05:52:06.254Z,831.75
2019-01-23T05:53:06.159Z,831.77
2019-01-23T05:54:05.972Z,831.76
2019-01-23T05:55:05.830Z,831.77
2019-01-23T05:56:05.691Z,831.77
2019-01-23T05:57:05.551Z,831.74
2019-01-23T05:58:05.408Z,831.73
2019-01-23T05:59:05.269Z,831.73
2019-01-23T06:00:05.130Z,831.66
2019-01-23T06:01:04.987Z,831.65
2019-01-23T06:02:04.845Z,831.64
2019-01-23T06:03:04.708Z,831.65
2019-01-23T06:04:04.570Z,831.65
2019-01-23T06:05:04.472Z,831.62
2019-01-23T06:06:04.303Z,831.64
2019-01-23T06:07:04.142Z,831.61
2019-01-23T06:08:04.001Z,831.68
2019-01-23T06:09:03.860Z,831.64
2019-01-23T06:10:03.720Z,831.61
2019-01-23T06:11:03.577Z,831.67
2019-01-23T06:12:03.436Z,831.61
2019-01-23T06:13:03.298Z,831.61
2019-01-23T06:14:03.157Z,831.58
2019-01-23T06:15:03.016Z,831.59
2019-01-23T06:16:02.874Z,831.66
2019-01-23T06:17:02.734Z,831.61
2019-01-23T06:18:02.596Z,831.64
2019-01-23T06:19:02.451Z,831.66
2019-01-23T06:20:02.311Z,831.63
2019-01-23T06:21:02.173Z,831.62
2019-01-23T06:22:02.031Z,831.63
2019-01-23T06:23:01.889Z,831.68
2019-01-23T06:24:01.747Z,831.69
2019-01-23T06:25:01.613Z,831.67
2019-01-23T06:26:01.471Z,831.65
2019-01-23T06:27:01.327Z,831.64
2019-01-23T06:28:01.186Z,831.67
2019-01-23T06:29:01.046Z,831.65
2019-01-23T06:30:00.907Z,831.68
2019-01-23T06:31:00.765Z,831.65
2019-01-23T06:32:00.622Z,831.62
2019-01-23T06:33:00.487Z,831.62
2019-01-23T06:34:00.343Z,831.66
2019-01-23T06:35:00.241Z,831.61
2019-01-23T06:36:00.060Z,831.58
2019-01-23T06:36:59.920Z,831.61
2019-01-23T06:37:59.778Z,831.64
2019-01-23T06:38:59.639Z,831.62
2019-01-23T06:39:59.497Z,831.59
2019-01-23T06:40:59.358Z,831.60
2019-01-23T06:41:59.221Z,831.58
2019-01-23T06:42:59.075Z,831.53
2019-01-23T06:43:58.933Z,831.56
2019-01-23T06:44:58.794Z,831.54
2019-01-23T06:45:58.657Z,831.49
2019-01-23T06:46:58.511Z,831.50
2019-01-23T06:47:58.372Z,831.50
2019-01-23T06:48:58.232Z,831.51
2019-01-23T06:49:58.909Z,831.51
2019-01-23T06:50:57.950Z,831.53
2019-01-23T06:51:57.812Z,831.50
2019-01-23T06:52:57.670Z,831.50
2019-01-23T06:53:57.529Z,831.48
2019-01-23T06:54:57.387Z,831.49
2019-01-23T06:55:57.248Z,831.43
2019-01-23T06:56:57.109Z,831.43
2019-01-23T06:57:56.967Z,831.39
2019-01-23T06:58:56.825Z,831.45
2019-01-23T06:59:56.684Z,831.40
2019-01-23T07:00:56.546Z,831.43
2019-01-23T07:01:56.425Z,831.45
2019-01-23T07:02:56.266Z,831.44
2019-01-23T07:03:56.127Z,831.40
2019-01-23T07:04:55.983Z,831.42
2019-01-23T07:05:55.842Z,831.42
2019-01-23T07:06:55.701Z,831.42
2019-01-23T07:07:55.561Z,831.39
2019-01-23T07:08:55.420Z,831.39
2019-01-23T07:09:55.282Z,831.42
2019-01-23T07:10:55.138Z,831.42
2019-01-23T07:11:54.999Z,831.44
2019-01-23T07:12:54.860Z,831.44
2019-01-23T07:13:54.719Z,831.40
2019-01-23T07:14:54.578Z,831.44
2019-01-23T07:15:54.437Z,831.42
2019-01-23T07:16:54.297Z,831.43
2019-01-23T07:17:54.161Z,831.41
2019-01-23T07:18:54.017Z,831.45
2019-01-23T07:19:53.880Z,831.45
2019-01-23T07:20:53.740Z,831.44
2019-01-23T07:21:53.598Z,831.45
2019-01-23T07:22:53.454Z,831.44
2019-01-23T07:23:53.316Z,831.37
2019-01-23T07:24:53.177Z,831.38
2019-01-23T07:25:53.036Z,831.35
2019-01-23T07:26:52.894Z,831.38
2019-01-23T07:27:52.755Z,831.35
2019-01-23T07:28:52.612Z,831.37
2019-01-23T07:29:52.474Z,831.35
2019-01-23T07:30:52.330Z,831.35
2019-01-23T07:31:52.190Z,831.33
2019-01-23T07:32:52.055Z,831.30
2019-01-23T07:33:51.912Z,831.28
2019-01-23T07:34:51.771Z,831.28
2019-01-23T07:35:51.691Z,831.25
2019-01-23T07:36:51.490Z,831.21
2019-01-23T07:37:51.364Z,831.19
2019-01-23T07:38:51.207Z,831.15
2019-01-23T07:39:51.073Z,831.17
2019-01-23T07:40:50.931Z,831.18
2019-01-23T07:41:50.782Z,831.12
2019-01-23T07:42:50.647Z,831.10
2019-01-23T07:43:50.520Z,831.16
2019-01-23T07:44:50.367Z,831.11
2019-01-23T07:45:50.220Z,831.17
2019-01-23T07:46:50.081Z,831.13
2019-01-23T07:47:49.940Z,831.15
2019-01-23T07:48:49.799Z,831.19
2019-01-23T07:49:49.660Z,831.19
2019-01-23T07:50:49.517Z,831.19
2019-01-23T07:51:49.378Z,831.18
2019-01-23T07:52:49.242Z,831.20
2019-01-23T07:53:49.100Z,831.19
2019-01-23T07:54:48.960Z,831.23
2019-01-23T07:55:48.818Z,831.21
2019-01-23T07:56:48.679Z,831.20
2019-01-23T07:57:48.537Z,831.17
2019-01-23T07:58:48.397Z,831.22
2019-01-23T07:59:48.256Z,831.22
2019-01-23T08:00:48.117Z,831.23
2019-01-23T08:01:47.976Z,831.23
2019-01-23T08:02:47.836Z,831.26
2019-01-23T08:03:47.697Z,831.18
2019-01-23T08:04:47.560Z,831.20
2019-01-23T08:05:47.417Z,831.25
2019-01-23T08:06:47.278Z,831.19
2019-01-23T08:07:47.137Z,831.21
2019-01-23T08:08:46.995Z,831.20
2019-01-23T08:09:46.858Z,831.21
2019-01-23T08:10:46.716Z,831.20
2019-01-23T08:11:46.576Z,831.22
2019-01-23T08:12:46.447Z,831.20
2019-01-23T08:13:46.373Z,831.19
2019-01-23T08:14:46.154Z,831.23
2019-01-23T08:15:46.014Z,831.21
2019-01-23T08:16:45.874Z,831.15
2019-01-23T08:17:45.882Z,831.16
2019-01-23T08:18:45.600Z,831.14
2019-01-23T08:19:45.455Z,831.15
2019-01-23T08:20:45.315Z,831.11
2019-01-23T08:21:45.177Z,831.13
2019-01-23T08:22:45.061Z,831.13
2019-01-23T08:23:44.906Z,831.10
2019-01-23T08:24:44.754Z,831.13
2019-01-23T08:25:44.615Z,831.06
2019-01-23T08:26:44.471Z,831.05
2019-01-23T08:27:44.332Z,831.04
2019-01-23T08:28:44.194Z,831.02
2019-01-23T08:29:44.062Z,830.99
2019-01-23T08:30:43.916Z,831.02
2019-01-23T08:31:43.772Z,830.98
2019-01-23T08:32:43.632Z,831.02
2019-01-23T08:33:43.494Z,831.01
2019-01-23T08:34:43.352Z,830.99
2019-01-23T08:35:43.210Z,831.02
2019-01-23T08:36:43.072Z,831.01
2019-01-23T08:37:42.932Z,831.05
2019-01-23T08:38:42.790Z,831.01
2019-01-23T08:39:42.651Z,831.01
2019-01-23T08:40:42.516Z,831.05
2019-01-23T08:41:42.372Z,831.06
2019-01-23T08:42:42.231Z,831.06
2019-01-23T08:43:42.088Z,831.04
2019-01-23T08:44:41.950Z,831.04
2019-01-23T08:45:41.815Z,831.01
2019-01-23T08:46:41.671Z,831.01
2019-01-23T08:47:41.529Z,831.03
2019-01-23T08:48:41.390Z,831.00
2019-01-23T08:49:41.248Z,830.98
2019-01-23T08:50:41.110Z,830.97
2019-01-23T08:51:40.969Z,830.98
2019-01-23T08:52:40.829Z,830.94
2019-01-23T08:53:40.690Z,830.93
2019-01-23T08:54:40.564Z,830.94
2019-01-23T08:55:40.409Z,830.91
2019-01-23T08:56:40.266Z,830.92
2019-01-23T08:57:40.127Z,830.91
2019-01-23T08:58:39.987Z,830.88
2019-01-23T08:59:39.848Z,830.87
2019-01-23T09:00:45.848Z,830.85
2019-01-23T09:01:39.567Z,830.89
2019-01-23T09:02:39.425Z,830.86
2019-01-23T09:03:39.286Z,830.88
2019-01-23T09:04:39.147Z,830.86
2019-01-23T09:05:39.006Z,830.85
2019-01-23T09:06:38.864Z,830.82
2019-01-23T09:07:38.723Z,830.79
2019-01-23T09:08:38.591Z,830.80
2019-01-23T09:09:38.444Z,830.76
2019-01-23T09:10:38.303Z,830.79
2019-01-23T09:11:38.165Z,830.80
2019-01-23T09:12:38.023Z,830.78
2019-01-23T09:13:37.883Z,830.80
2019-01-23T09:14:37.745Z,830.81
2019-01-23T09:15:37.603Z,830.79
2019-01-23T09:16:37.461Z,830.79
2019-01-23T09:17:37.323Z,830.78
2019-01-23T09:18:37.183Z,830.78
2019-01-23T09:19:37.039Z,830.82
2019-01-23T09:20:36.902Z,830.77
2019-01-23T09:21:36.762Z,830.81
2019-01-23T09:22:36.620Z,830.79
2019-01-23T09:23:36.485Z,830.75
2019-01-23T09:24:36.342Z,830.76
2019-01-23T09:25:36.201Z,830.76
2019-01-23T09:26:36.062Z,830.75
2019-01-23T09:27:35.921Z,830.76
2019-01-23T09:28:35.782Z,830.72
2019-01-23T09:29:35.642Z,830.72
2019-01-23T09:30:35.504Z,830.66
2019-01-23T09:31:35.363Z,830.70
2019-01-23T09:32:35.224Z,830.68
2019-01-23T09:33:35.084Z,830.70
2019-01-23T09:34:34.943Z,830.70
2019-01-23T09:35:34.808Z,830.69
2019-01-23T09:36:34.672Z,830.68
2019-01-23T09:37:34.530Z,830.67
2019-01-23T09:38:34.393Z,830.68
2019-01-23T09:39:34.252Z,830.67
2019-01-23T09:40:34.115Z,830.64
2019-01-23T09:41:33.982Z,830.65
2019-01-23T09:42:33.840Z,830.65
2019-01-23T09:43:33.703Z,830.67
2019-01-23T09:44:33.567Z,830.61
2019-01-23T09:45:33.431Z,830.64
2019-01-23T09:46:33.292Z,830.64
2019-01-23T09:47:33.157Z,830.64
2019-01-23T09:48:33.020Z,830.64
2019-01-23T09:49:32.889Z,830.62
2019-01-23T09:50:32.745Z,830.61
2019-01-23T09:51:32.614Z,830.62
2019-01-23T09:52:32.476Z,830.61
2019-01-23T09:53:32.337Z,830.60
2019-01-23T09:54:32.201Z,830.59
2019-01-23T09:55:32.089Z,830.61
2019-01-23T09:56:31.929Z,830.57
2019-01-23T09:57:31.793Z,830.58
2019-01-23T09:58:31.659Z,830.53
2019-01-23T09:59:31.563Z,830.52
2019-01-23T10:00:31.930Z,830.51
2019-01-23T10:01:31.248Z,830.48
2019-01-23T10:02:31.110Z,830.44
2019-01-23T10:03:30.976Z,830.46
2019-01-23T10:04:30.840Z,830.43
2019-01-23T10:05:30.707Z,830.40
2019-01-23T10:06:30.567Z,830.39
2019-01-23T10:07:30.433Z,830.40
2019-01-23T10:08:30.297Z,830.39
2019-01-23T10:09:30.171Z,830.36
2019-01-23T10:10:30.027Z,830.38
2019-01-23T10:11:29.891Z,830.36
2019-01-23T10:12:29.754Z,830.34
2019-01-23T10:13:29.621Z,830.31
2019-01-23T10:14:29.483Z,830.30
2019-01-23T10:15:29.349Z,830.29
2019-01-23T10:16:29.217Z,830.32
2019-01-23T10:17:29.080Z,830.26
2019-01-23T10:18:28.950Z,830.25
2019-01-23T10:19:28.810Z,830.29
2019-01-23T10:20:28.677Z,830.27
2019-01-23T10:21:28.541Z,830.25
2019-01-23T10:22:28.410Z,830.24
2019-01-23T10:23:28.271Z,830.25
2019-01-23T10:24:28.141Z,830.17
2019-01-23T10:25:28.003Z,830.14
2019-01-23T10:26:27.876Z,830.15
2019-01-23T10:27:27.736Z,830.12
2019-01-23T10:28:27.602Z,830.11
2019-01-23T10:29:27.468Z,830.10
2019-01-23T10:30:27.336Z,830.11
2019-01-23T10:31:27.201Z,830.07
2019-01-23T10:32:27.068Z,830.10
2019-01-23T10:33:26.933Z,830.07
2019-01-23T10:34:26.797Z,830.02
2019-01-23T10:35:26.667Z,830.06
2019-01-23T10:36:26.532Z,830.00
2019-01-23T10:37:26.400Z,830.02
2019-01-23T10:38:26.265Z,829.99
2019-01-23T10:39:26.131Z,829.96
2019-01-23T10:40:25.998Z,829.95
2019-01-23T10:41:25.868Z,829.91
2019-01-23T10:42:25.733Z,829.94
2019-01-23T10:43:25.604Z,829.95
2019-01-23T10:44:25.517Z,829.93
2019-01-23T10:45:25.332Z,829.93
2019-01-23T10:46:25.203Z,829.93
2019-01-23T10:47:25.070Z,829.95
2019-01-23T10:48:24.935Z,829.92
2019-01-23T10:49:24.803Z,829.92
2019-01-23T10:50:24.668Z,829.90
2019-01-23T10:51:24.538Z,829.94
2019-01-23T10:52:24.404Z,829.91
2019-01-23T10:53:24.272Z,829.93
2019-01-23T10:54:24.139Z,829.89
2019-01-23T10:55:24.004Z,829.88
2019-01-23T10:56:23.874Z,829.84
2019-01-23T10:57:23.740Z,829.84
2019-01-23T10:58:23.606Z,829.80
2019-01-23T10:59:23.474Z,829.79
2019-01-23T11:00:23.344Z,829.79
2019-01-23T11:01:23.214Z,829.76
2019-01-23T11:02:23.075Z,829.75
2019-01-23T11:03:22.943Z,829.76
2019-01-23T11:04:22.863Z,829.76
2019-01-23T11:05:22.724Z,829.76
2019-01-23T11:06:22.543Z,829.75
2019-01-23T11:07:22.414Z,829.76
2019-01-23T11:08:22.280Z,829.73
2019-01-23T11:09:22.190Z,829.70
2019-01-23T11:10:22.014Z,829.68
2019-01-23T11:11:21.883Z,829.67
2019-01-23T11:12:21.751Z,829.68
2019-01-23T11:13:21.618Z,829.69
2019-01-23T11:14:21.489Z,829.67
2019-01-23T11:15:21.354Z,829.69
2019-01-23T11:16:21.221Z,829.64
2019-01-23T11:17:21.087Z,829.71
2019-01-23T11:18:20.956Z,829.67
2019-01-23T11:19:20.824Z,829.66
2019-01-23T11:20:20.698Z,829.68
2019-01-23T11:21:20.559Z,829.68
2019-01-23T11:22:20.426Z,829.67
2019-01-23T11:23:20.295Z,829.66
2019-01-23T11:24:20.165Z,829.64
2019-01-23T11:25:20.036Z,829.59
2019-01-23T11:26:19.909Z,829.58
2019-01-23T11:27:19.767Z,829.59
2019-01-23T11:28:19.635Z,829.58
2019-01-23T11:29:19.503Z,829.53
2019-01-23T11:30:19.369Z,829.60
2019-01-23T11:31:20.472Z,829.59
2019-01-23T11:32:19.106Z,829.60
2019-01-23T11:33:18.979Z,829.59
2019-01-23T11:34:18.842Z,829.60
2019-01-23T11:35:18.705Z,829.61
2019-01-23T11:36:18.575Z,829.61
2019-01-23T11:37:18.441Z,829.62
2019-01-23T11:38:18.308Z,829.60
2019-01-23T11:39:18.175Z,829.58
2019-01-23T11:40:18.049Z,829.57
2019-01-23T11:41:17.910Z,829.58
2019-01-23T11:42:17.786Z,829.56
2019-01-23T11:43:17.643Z,829.56
2019-01-23T11:44:17.512Z,829.57
2019-01-23T11:45:17.377Z,829.54
2019-01-23T11:46:17.251Z,829.56
2019-01-23T11:47:17.126Z,829.55
2019-01-23T11:48:16.980Z,829.57
2019-01-23T11:49:16.847Z,829.60
2019-01-23T11:50:21.296Z,829.51
2019-01-23T11:51:16.583Z,829.58
2019-01-23T11:52:16.451Z,829.52
2019-01-23T11:53:16.318Z,829.49
2019-01-23T11:54:16.184Z,829.49
2019-01-23T11:55:16.052Z,829.49
2019-01-23T11:56:15.918Z,829.48
2019-01-23T11:57:15.786Z,829.50
2019-01-23T11:58:15.651Z,829.43
2019-01-23T11:59:15.522Z,829.45
2019-01-23T12:00:15.388Z,829.42
2019-01-23T12:01:15.253Z,829.41
2019-01-23T12:02:15.119Z,829.39
2019-01-23T12:03:20.895Z,829.40
2019-01-23T12:04:14.855Z,829.39
2019-01-23T12:05:14.723Z,829.41
2019-01-23T12:06:14.588Z,829.36
2019-01-23T12:07:14.457Z,829.38
2019-01-23T12:08:14.321Z,829.38
2019-01-23T12:09:14.189Z,829.36
2019-01-23T12:10:14.056Z,829.37
2019-01-23T12:11:13.922Z,829.35
2019-01-23T12:12:13.790Z,829.32
2019-01-23T12:13:13.657Z,829.31
2019-01-23T12:14:13.523Z,829.31
2019-01-23T12:15:13.406Z,829.33
2019-01-23T12:16:13.594Z,829.28
2019-01-23T12:17:13.218Z,829.31
2019-01-23T12:18:13.007Z,829.30
2019-01-23T12:19:12.857Z,829.35
2019-01-23T12:20:12.724Z,829.34
2019-01-23T12:21:12.590Z,829.32
2019-01-23T12:22:12.458Z,829.34
2019-01-23T12:23:12.323Z,829.35
2019-01-23T12:24:12.190Z,829.33
2019-01-23T12:25:12.063Z,829.35
2019-01-23T12:26:11.924Z,829.34
2019-01-23T12:27:11.794Z,829.31